Lakefront Airport
KNEW : now visible

Airfield :











YOU CAN JOIN US ON...

 
LOGIN :

Register | Disclaimer

   EN    FR    IT 

 









Legend :    VFR   Marginal VFR   IFR   Intensive IFR   Very Intensive IFR
Visi :
Ceiling :
>= 8 km
>= 3000ft
5 to 8 km
1000 to 3000 ft
1500m to 5 km
500 to 1000 ft
800 to 1500m
200 to 500 ft
< 800m
< 200 ft
Symbols :   Thunderstorms  Fog  Heavy snow  Heavy precipitations  Wind > 20 kt







- Airport Elevation : 8 ft


KNEW - Lakefront

CURRENT METAR :
  • 200953Z AUTO 14005KT 9SM CLR 25/23 A3004 RMK AO2 LTG DSNT NW SLP167 T02500228

EXPIRED METARs :
  • 200853Z AUTO 16012KT 10SM FEW044 24/22 A3003 RMK AO2 SLP161 60145 T02440222 56006
  • 200753Z AUTO 14007KT 9SM CLR 26/24 A3003 RMK AO2 RAE02 SLP161 P0000 T02560239

TAF KNEW
Valid from the 20 at 06:00 until the 21 at 06:00 UTC


200521Z 2006/2106 13010KT P6SM SCT025 BKN250
TEMPO 2006/2008 VRB20G30KT 3SM TSRA BKN025CB
FM200900 10008KT P6SM FEW030 BKN100
FM201500 10013KT P6SM VCTS SCT030CB BKN090
FM210000 11011G19KT P6SM FEW030 SCT140
No reported NOTAMs for that airfield.



MET'MAP, your aeronautical weather chart ! - Copyright ORBIFLY December 2007 - Disclaimer

ORBIFLY MET'MAP TEAM :

Programming & Development : Alexandra Zaïnal
Concept & Development : Baudouin d'Aumeries
Co-Development & Prog : Marc-Olivier Méhu
Technical & hardware support : Manuel Goepfert

Contact : metmap@orbifly.com




SOURCES & CREDITS :

   NOAA       Earth
Advisory